KACB

Antrim County Airport

Bellaire, Michigan, USA
METAR KACB 260315Z AUTO 22005KT 10SM OVC036 02/M02 A2990 RMK AO2 T00171021
Observed Flight Rules
Feb-26 @ 03:15 UTC (18 minutes ago) Visual Flight Rules
Wind Visibility Clouds
220° at 5 knots 10 miles
  • Overcast at 3,600' AGL
Temperatures Readings
Current 2°C / 36°F
Dewpoint -2°C / 28°F
Humidity 75%
Altimeter 29.9" Hg
Pressure 1013 hPa
Elevation 190
METAR KACB 260315Z AUTO 22005KT 10SM OVC036 02/M02 A2990 RMK AO2 T00171021
Observed Flight Rules
Feb-26 @ 03:15 UTC
(18 minutes ago)
VFR
Wind Visibility
220° at 5 knots 10 miles
Clouds
  • Overcast at 3,600' AGL
Temperature Dewpoint
2°C / 36°F -2°C / 28°F
Humidity Altimeter Pressure
75% 29.9" Hg 1013 hPa